createdAt,value
2022-10-18T00:00:19.861Z,98987.00
2022-10-18T00:02:50.022Z,98992.53
2022-10-18T00:05:22.644Z,98983.03
2022-10-18T00:07:52.834Z,98990.69
2022-10-18T00:10:24.665Z,98984.94
2022-10-18T00:12:55.600Z,98989.63
2022-10-18T00:15:25.767Z,98990.78
2022-10-18T00:17:55.786Z,98994.66
2022-10-18T00:20:28.754Z,98989.44
2022-10-18T00:22:58.920Z,98998.81
2022-10-18T00:25:28.940Z,98997.78
2022-10-18T00:27:58.959Z,98993.31
2022-10-18T00:30:29.130Z,99007.28
2022-10-18T00:32:59.185Z,99007.41
2022-10-18T00:35:31.849Z,99002.50
2022-10-18T00:38:01.875Z,99003.69
2022-10-18T00:40:31.943Z,99003.47
2022-10-18T00:43:01.985Z,99000.78
2022-10-18T00:45:32.463Z,98999.28
2022-10-18T00:48:07.097Z,98997.38
2022-10-18T00:50:39.986Z,98994.13
2022-10-18T00:53:15.700Z,98997.66
2022-10-18T00:55:45.957Z,98999.34
2022-10-18T00:58:20.223Z,99001.44
2022-10-18T01:00:50.402Z,99003.81
2022-10-18T01:03:20.406Z,98999.69
2022-10-18T01:05:53.182Z,98994.81
2022-10-18T01:09:05.054Z,98996.06
2022-10-18T01:12:12.867Z,99003.53
2022-10-18T01:14:52.491Z,98998.53
2022-10-18T01:17:30.875Z,99002.84
2022-10-18T01:20:45.315Z,99003.28
2022-10-18T01:23:34.264Z,99002.94
2022-10-18T01:26:21.874Z,99001.00
2022-10-18T01:29:18.984Z,98994.97
2022-10-18T01:31:59.893Z,98992.19
2022-10-18T01:34:36.725Z,98989.69
2022-10-18T01:37:12.554Z,98997.19
2022-10-18T01:39:48.513Z,98995.16
2022-10-18T01:42:23.598Z,99001.03
2022-10-18T01:44:56.469Z,99000.22
2022-10-18T01:47:30.958Z,99002.16
2022-10-18T01:50:03.903Z,98999.75
2022-10-18T01:52:34.199Z,98986.44
2022-10-18T01:55:07.135Z,98993.31
2022-10-18T01:57:44.325Z,98987.13
2022-10-18T02:00:20.252Z,98992.75
2022-10-18T02:03:04.747Z,98993.88
2022-10-18T02:05:42.827Z,98977.88
2022-10-18T02:08:26.386Z,98990.81
2022-10-18T02:11:05.024Z,98976.56
2022-10-18T02:13:43.261Z,98981.88
2022-10-18T02:16:19.467Z,98982.44
2022-10-18T02:19:00.461Z,98977.56
2022-10-18T02:21:33.262Z,98982.16
2022-10-18T02:24:06.542Z,98980.53
2022-10-18T02:26:36.753Z,98984.53
2022-10-18T02:29:07.147Z,98979.69
2022-10-18T02:31:46.408Z,98974.13
2022-10-18T02:34:24.265Z,98974.28
2022-10-18T02:36:58.528Z,98978.78
2022-10-18T02:39:34.738Z,98983.53
2022-10-18T02:42:09.068Z,98975.84
2022-10-18T02:44:40.901Z,98971.22
2022-10-18T02:47:15.263Z,98976.22
2022-10-18T02:49:47.818Z,98974.56
2022-10-18T02:52:17.834Z,98984.00
2022-10-18T02:54:47.781Z,98979.25
2022-10-18T02:57:17.853Z,98974.25
2022-10-18T02:59:47.914Z,98979.91
2022-10-18T03:02:17.945Z,98976.41
2022-10-18T03:04:50.505Z,98978.88
2022-10-18T03:07:20.484Z,98972.59
2022-10-18T03:09:50.556Z,98974.00
2022-10-18T03:12:20.560Z,98974.22
2022-10-18T03:14:50.497Z,98975.28
2022-10-18T03:17:20.569Z,98971.44
2022-10-18T03:19:53.187Z,98989.97
2022-10-18T03:22:23.239Z,98986.09
2022-10-18T03:24:53.970Z,98987.09
2022-10-18T03:27:23.912Z,98981.16
2022-10-18T03:29:53.916Z,98979.38
2022-10-18T03:32:23.909Z,98976.44
2022-10-18T03:34:56.500Z,98978.97
2022-10-18T03:37:26.522Z,98983.81
2022-10-18T03:39:56.593Z,98978.22
2022-10-18T03:42:26.870Z,98978.59
2022-10-18T03:44:56.853Z,98978.44
2022-10-18T03:47:26.985Z,98971.50
2022-10-18T03:49:59.579Z,98971.56
2022-10-18T03:52:30.150Z,98976.31
2022-10-18T03:55:00.384Z,98974.09
2022-10-18T03:57:30.411Z,98977.00
2022-10-18T04:00:00.373Z,98970.41
2022-10-18T04:02:30.912Z,98969.25
2022-10-18T04:05:03.589Z,98971.69
2022-10-18T04:07:34.068Z,98959.78
2022-10-18T04:10:04.513Z,98969.53
2022-10-18T04:12:34.756Z,98975.78
2022-10-18T04:15:05.045Z,98973.13
2022-10-18T04:17:35.192Z,98976.81
2022-10-18T04:20:09.697Z,98976.59
2022-10-18T04:22:39.771Z,98983.25
2022-10-18T04:25:10.570Z,98986.16
2022-10-18T04:27:40.581Z,98987.50
2022-10-18T04:30:12.380Z,98979.81
2022-10-18T04:32:42.766Z,98979.75
2022-10-18T04:35:15.772Z,98986.81
2022-10-18T04:37:45.738Z,98992.53
2022-10-18T04:40:16.140Z,98990.34
2022-10-18T04:42:46.152Z,98992.66
2022-10-18T04:45:16.401Z,98994.63
2022-10-18T04:47:46.341Z,98993.03
2022-10-18T04:50:19.111Z,98993.78
2022-10-18T04:55:20.377Z,98995.59
2022-10-18T04:57:50.421Z,99002.66
2022-10-18T05:00:20.785Z,98998.69
2022-10-18T05:02:50.786Z,98993.25
2022-10-18T05:05:27.034Z,98989.63
2022-10-18T05:08:03.223Z,99004.66
2022-10-18T05:10:33.243Z,98994.53
2022-10-18T05:13:03.604Z,98999.28
2022-10-18T05:15:33.651Z,98993.59
2022-10-18T05:18:03.850Z,98996.25
2022-10-18T05:20:36.517Z,98990.25
2022-10-18T05:23:06.668Z,98987.94
2022-10-18T05:25:36.756Z,98985.19
2022-10-18T05:28:11.071Z,98977.72
2022-10-18T05:30:51.251Z,98975.78
2022-10-18T05:33:21.336Z,98978.34
2022-10-18T05:35:53.922Z,98977.72
2022-10-18T05:38:24.437Z,98980.38
2022-10-18T05:40:54.898Z,98979.66
2022-10-18T05:43:24.863Z,98975.53
2022-10-18T05:45:55.131Z,98982.25
2022-10-18T05:48:25.397Z,98981.09
2022-10-18T05:51:01.789Z,98989.13
2022-10-18T05:53:36.768Z,98982.41
2022-10-18T05:56:08.834Z,98985.47
2022-10-18T05:58:38.800Z,98984.69
2022-10-18T06:01:10.236Z,98987.78
2022-10-18T06:03:40.337Z,98991.41
2022-10-18T06:06:15.401Z,98982.25
2022-10-18T06:08:47.117Z,98989.22
2022-10-18T06:11:20.694Z,98984.78
2022-10-18T06:13:53.091Z,98979.25
2022-10-18T06:16:29.777Z,98984.19
2022-10-18T06:19:02.449Z,98981.34
2022-10-18T06:21:35.044Z,98982.94
2022-10-18T06:24:05.195Z,98991.03
2022-10-18T06:26:35.194Z,98984.88
2022-10-18T06:29:05.198Z,98990.31
2022-10-18T06:31:35.286Z,98994.53
2022-10-18T06:34:05.285Z,98996.25
2022-10-18T06:36:37.865Z,99006.44
2022-10-18T06:39:07.825Z,98998.13
2022-10-18T06:41:37.904Z,99013.63
2022-10-18T06:44:22.084Z,99017.84
2022-10-18T06:46:53.556Z,99011.44
2022-10-18T06:49:23.495Z,99018.22
2022-10-18T06:51:57.195Z,99019.38
2022-10-18T06:54:27.232Z,99016.34
2022-10-18T06:57:01.691Z,99021.81
2022-10-18T06:59:31.779Z,99031.63
2022-10-18T07:02:01.884Z,99032.50
2022-10-18T07:04:32.349Z,99033.22
2022-10-18T07:07:05.002Z,99037.91
2022-10-18T07:09:35.452Z,99038.25
2022-10-18T07:12:05.722Z,99043.75
2022-10-18T07:14:35.792Z,99038.69
2022-10-18T07:17:05.778Z,99037.63
2022-10-18T07:19:35.809Z,99035.16
2022-10-18T07:22:08.469Z,99033.22
2022-10-18T07:24:38.456Z,99026.56
2022-10-18T07:27:08.935Z,99019.44
2022-10-18T07:29:40.974Z,99025.53
2022-10-18T07:32:11.174Z,99026.66
2022-10-18T07:34:41.176Z,99030.00
2022-10-18T07:37:13.944Z,99034.31
2022-10-18T07:39:43.898Z,99028.97
2022-10-18T07:42:13.893Z,99031.56
2022-10-18T07:44:43.870Z,99026.31
2022-10-18T07:47:13.891Z,99024.19
2022-10-18T07:49:44.907Z,99032.09
2022-10-18T07:52:17.578Z,99027.78
2022-10-18T07:54:47.614Z,99028.16
2022-10-18T07:57:17.626Z,99030.00
2022-10-18T07:59:48.346Z,99026.47
2022-10-18T08:02:18.326Z,99029.84
2022-10-18T08:04:49.076Z,99036.44
2022-10-18T08:07:21.737Z,99035.41
2022-10-18T08:09:51.917Z,99032.28
2022-10-18T08:12:21.856Z,99029.19
2022-10-18T08:14:51.925Z,99042.94
2022-10-18T08:17:21.915Z,99035.44
2022-10-18T08:20:04.772Z,99047.94
2022-10-18T08:22:44.409Z,99050.22
2022-10-18T08:25:14.582Z,99048.06
2022-10-18T08:27:44.584Z,99048.72
2022-10-18T08:30:14.892Z,99041.13
2022-10-18T08:32:44.965Z,99049.66
2022-10-18T08:35:15.090Z,99046.38
2022-10-18T08:37:48.536Z,99049.25
2022-10-18T08:40:20.337Z,99051.00
2022-10-18T08:43:09.633Z,99049.50
2022-10-18T08:45:44.281Z,99040.94
2022-10-18T08:48:24.621Z,99038.13
2022-10-18T08:50:58.458Z,99040.09
2022-10-18T08:53:40.655Z,99046.59
2022-10-18T08:56:15.343Z,99036.63
2022-10-18T08:58:46.853Z,99046.41
2022-10-18T09:01:35.218Z,99048.97
2022-10-18T09:04:28.124Z,99047.06
2022-10-18T09:07:21.189Z,99049.84
2022-10-18T09:10:02.613Z,99046.09
2022-10-18T09:12:54.096Z,99044.63
2022-10-18T09:15:35.215Z,99041.41
2022-10-18T09:18:23.648Z,99041.03
2022-10-18T09:20:59.666Z,99043.41
2022-10-18T09:23:44.219Z,99046.78
2022-10-18T09:26:21.982Z,99037.47
2022-10-18T09:29:08.701Z,99034.09
2022-10-18T09:31:50.294Z,99043.56
2022-10-18T09:34:33.972Z,99041.50
2022-10-18T09:37:05.269Z,99046.47
2022-10-18T09:39:40.857Z,99037.59
2022-10-18T09:42:26.776Z,99033.31
2022-10-18T09:45:03.604Z,99033.38
2022-10-18T09:47:43.834Z,99036.91
2022-10-18T09:50:28.144Z,99042.28
2022-10-18T09:53:13.855Z,99046.50
2022-10-18T09:55:59.745Z,99045.19
2022-10-18T09:58:46.364Z,99049.13
2022-10-18T10:01:19.098Z,99049.00
2022-10-18T10:03:49.172Z,99037.53
2022-10-18T10:06:31.161Z,99044.41
2022-10-18T10:09:07.837Z,99051.72
2022-10-18T10:11:41.410Z,99046.63
2022-10-18T10:14:19.677Z,99045.59
2022-10-18T10:16:57.424Z,99062.34
2022-10-18T10:19:33.959Z,99052.72
2022-10-18T10:22:11.846Z,99058.13
2022-10-18T10:24:52.182Z,99048.25
2022-10-18T10:27:30.962Z,99044.44
2022-10-18T10:30:07.459Z,99048.16
2022-10-18T10:32:51.053Z,99047.25
2022-10-18T10:35:58.875Z,99040.91
2022-10-18T10:38:31.777Z,99049.16
2022-10-18T10:41:02.729Z,99050.97
2022-10-18T10:43:38.895Z,99041.72
2022-10-18T10:46:15.717Z,99044.69
2022-10-18T10:49:03.299Z,99045.47
2022-10-18T10:51:43.840Z,99047.31
2022-10-18T10:54:21.420Z,99050.03
2022-10-18T10:57:04.042Z,99031.13
2022-10-18T10:59:46.179Z,99029.69
2022-10-18T11:02:29.160Z,99038.66
2022-10-18T11:05:24.290Z,99044.19
2022-10-18T11:07:59.487Z,99044.00
2022-10-18T11:10:37.109Z,99034.06
2022-10-18T11:13:25.912Z,99038.00
2022-10-18T11:16:02.556Z,99032.94
2022-10-18T11:18:41.040Z,99035.13
2022-10-18T11:21:19.078Z,99037.06
2022-10-18T11:23:49.460Z,99032.88
2022-10-18T11:26:53.734Z,99038.88
2022-10-18T11:29:45.837Z,99035.63
2022-10-18T11:32:27.680Z,99041.25
2022-10-18T11:35:30.885Z,99043.03
2022-10-18T11:38:24.262Z,99036.38
2022-10-18T11:41:33.948Z,99026.44
2022-10-18T11:44:06.897Z,99035.25
2022-10-18T11:47:04.301Z,99025.75
2022-10-18T11:49:51.576Z,99030.78
2022-10-18T11:52:36.641Z,99030.09
2022-10-18T11:55:38.834Z,99026.13
2022-10-18T11:58:33.024Z,99022.09
2022-10-18T12:01:19.053Z,99023.13
2022-10-18T12:04:02.188Z,99027.63
2022-10-18T12:06:40.086Z,99025.47
2022-10-18T12:09:26.426Z,99016.56
2022-10-18T12:12:03.133Z,99027.88
2022-10-18T12:14:40.239Z,99025.16
2022-10-18T12:20:24.166Z,99023.31
2022-10-18T12:23:03.591Z,99014.66
2022-10-18T12:25:41.373Z,99014.09
2022-10-18T12:28:26.110Z,99014.75
2022-10-18T12:31:11.253Z,99009.09
2022-10-18T12:33:45.647Z,99010.75
2022-10-18T12:36:44.562Z,99005.44
2022-10-18T12:39:37.586Z,99000.72
2022-10-18T12:42:26.993Z,98991.88
2022-10-18T12:45:07.366Z,98991.50
2022-10-18T12:47:37.989Z,99000.13
2022-10-18T12:50:33.962Z,98994.38
2022-10-18T12:53:19.225Z,98993.25
2022-10-18T12:55:52.338Z,98988.16
2022-10-18T12:58:32.535Z,98988.75
2022-10-18T13:01:09.679Z,98986.44
2022-10-18T13:03:53.064Z,98995.94
2022-10-18T13:06:24.459Z,98986.66
2022-10-18T13:09:24.185Z,98992.16
2022-10-18T13:12:01.961Z,98994.81
2022-10-18T13:15:24.671Z,98994.44
2022-10-18T13:18:03.221Z,98994.50
2022-10-18T13:20:46.698Z,98987.19
2022-10-18T13:23:41.258Z,98987.66
2022-10-18T13:26:26.487Z,98996.75
2022-10-18T13:29:07.648Z,98999.22
2022-10-18T13:31:50.490Z,98998.53
2022-10-18T13:34:30.412Z,99001.47
2022-10-18T13:37:03.317Z,98998.03
2022-10-18T13:39:34.506Z,98985.13
2022-10-18T13:42:35.015Z,98991.59
2022-10-18T13:45:56.290Z,98989.06
2022-10-18T13:48:57.819Z,98988.94
2022-10-18T13:51:58.197Z,98996.75
2022-10-18T13:55:05.350Z,98991.59
2022-10-18T13:57:53.841Z,98994.72
2022-10-18T14:00:49.199Z,98996.47
2022-10-18T14:03:58.293Z,98997.63
2022-10-18T14:06:38.374Z,98996.09
2022-10-18T14:09:32.878Z,99005.66
2022-10-18T14:12:24.287Z,99007.53
2022-10-18T14:15:02.505Z,99002.34
2022-10-18T14:17:43.360Z,98994.81
2022-10-18T14:20:29.959Z,99003.63
2022-10-18T14:23:13.600Z,99007.25
2022-10-18T14:25:43.909Z,99003.94
2022-10-18T14:28:18.418Z,99012.41
2022-10-18T14:30:58.254Z,99014.88
2022-10-18T14:33:37.337Z,99012.03
2022-10-18T14:36:15.803Z,99020.38
2022-10-18T14:38:56.859Z,99014.63
2022-10-18T14:41:29.616Z,99017.31
2022-10-18T14:44:21.472Z,99019.72
2022-10-18T14:46:53.951Z,99018.34
2022-10-18T14:49:24.594Z,99020.06
2022-10-18T14:51:58.422Z,99026.53
2022-10-18T14:54:36.076Z,99025.75
2022-10-18T14:57:08.711Z,99024.03
2022-10-18T14:59:47.067Z,99021.25
2022-10-18T15:02:22.306Z,99017.75
2022-10-18T15:05:00.941Z,99024.41
2022-10-18T15:07:32.270Z,99020.47
2022-10-18T15:10:09.068Z,99016.53
2022-10-18T15:13:08.151Z,99018.47
2022-10-18T15:15:38.027Z,99019.94
2022-10-18T15:18:10.941Z,99015.44
2022-10-18T15:20:42.972Z,99011.38
2022-10-18T15:23:27.019Z,99022.47
2022-10-18T15:26:08.316Z,99014.50
2022-10-18T15:28:51.148Z,99011.91
2022-10-18T15:31:29.297Z,99018.53
2022-10-18T15:34:13.388Z,99013.13
2022-10-18T15:39:33.467Z,99029.19
2022-10-18T15:42:06.417Z,99020.09
2022-10-18T15:44:49.229Z,99028.28
2022-10-18T15:47:24.479Z,99021.19
2022-10-18T15:49:58.489Z,99022.44
2022-10-18T15:52:39.509Z,99023.44
2022-10-18T15:55:52.196Z,99021.72
2022-10-18T15:58:32.069Z,99023.19
2022-10-18T16:01:04.827Z,99014.75
2022-10-18T16:03:39.538Z,99024.50
2022-10-18T16:06:14.653Z,99022.81
2022-10-18T16:08:50.163Z,99025.50
2022-10-18T16:11:22.986Z,99025.50
2022-10-18T16:13:59.528Z,99029.19
2022-10-18T16:16:32.449Z,99030.09
2022-10-18T16:19:02.512Z,99027.63
2022-10-18T16:21:35.799Z,99028.16
2022-10-18T16:24:06.596Z,99026.94
2022-10-18T16:26:37.321Z,99032.53
2022-10-18T16:29:14.826Z,99028.25
2022-10-18T16:31:46.816Z,99030.72
2022-10-18T16:34:17.373Z,99027.00
2022-10-18T16:36:47.824Z,99028.09
2022-10-18T16:39:21.474Z,99029.22
2022-10-18T16:41:51.728Z,99022.34
2022-10-18T16:44:24.341Z,99035.50
2022-10-18T16:46:56.265Z,99033.31
2022-10-18T16:49:28.829Z,99037.78
2022-10-18T16:51:59.629Z,99047.75
2022-10-18T16:54:29.616Z,99049.91
2022-10-18T16:56:59.816Z,99054.97
2022-10-18T16:59:34.709Z,99059.00
2022-10-18T17:02:08.996Z,99064.25
2022-10-18T17:04:39.079Z,99063.66
2022-10-18T17:07:10.371Z,99065.31
2022-10-18T17:09:40.395Z,99071.59
2022-10-18T17:12:10.388Z,99074.59
2022-10-18T17:14:42.960Z,99070.66
2022-10-18T17:17:14.841Z,99072.00
2022-10-18T17:19:44.825Z,99071.59
2022-10-18T17:22:14.999Z,99070.22
2022-10-18T17:24:45.000Z,99081.41
2022-10-18T17:27:14.982Z,99080.03
2022-10-18T17:29:47.576Z,99077.59
2022-10-18T17:32:17.875Z,99074.84
2022-10-18T17:34:47.903Z,99078.06
2022-10-18T17:37:17.969Z,99078.66
2022-10-18T17:39:48.070Z,99083.00
2022-10-18T17:42:18.062Z,99087.88
2022-10-18T17:44:54.146Z,99085.00
2022-10-18T17:47:27.369Z,99086.22
2022-10-18T17:49:57.381Z,99084.09
2022-10-18T17:52:27.400Z,99091.06
2022-10-18T17:54:58.172Z,99090.28
2022-10-18T17:57:28.365Z,99097.72
2022-10-18T18:00:02.953Z,99096.72
2022-10-18T18:02:42.632Z,99096.94
2022-10-18T18:05:13.082Z,99105.69
2022-10-18T18:07:44.375Z,99100.03
2022-10-18T18:10:15.209Z,99107.53
2022-10-18T18:12:46.773Z,99098.06
2022-10-18T18:15:19.572Z,99098.91
2022-10-18T18:17:57.828Z,99099.34
2022-10-18T18:20:29.000Z,99100.94
2022-10-18T18:22:58.957Z,99104.88
2022-10-18T18:25:28.900Z,99107.34
2022-10-18T18:28:00.645Z,99103.63
2022-10-18T18:30:35.311Z,99102.78
2022-10-18T18:33:05.465Z,99099.22
2022-10-18T18:35:35.467Z,99097.81
2022-10-18T18:38:06.484Z,99098.81
2022-10-18T18:40:36.506Z,99093.50
2022-10-18T18:43:18.966Z,99100.03
2022-10-18T18:45:58.153Z,99102.78
2022-10-18T18:48:29.913Z,99101.53
2022-10-18T18:50:59.901Z,99083.22
2022-10-18T18:53:30.057Z,99092.59
2022-10-18T18:56:06.277Z,99098.41
2022-10-18T18:58:40.366Z,99091.91
2022-10-18T19:01:17.303Z,99095.19
2022-10-18T19:03:49.147Z,99089.50
2022-10-18T19:06:22.422Z,99089.41
2022-10-18T19:08:54.243Z,99089.25
2022-10-18T19:11:25.429Z,99091.69
2022-10-18T19:13:55.374Z,99089.75
2022-10-18T19:16:32.214Z,99086.25
2022-10-18T19:19:04.943Z,99093.38
2022-10-18T19:21:37.769Z,99088.63
2022-10-18T19:24:09.237Z,99093.38
2022-10-18T19:26:44.920Z,99088.25
2022-10-18T19:29:18.127Z,99089.44
2022-10-18T19:31:52.280Z,99082.28
2022-10-18T19:34:26.269Z,99083.09
2022-10-18T19:36:56.935Z,99089.41
2022-10-18T19:39:29.266Z,99087.63
2022-10-18T19:42:03.224Z,99086.66
2022-10-18T19:44:36.060Z,99086.63
2022-10-18T19:47:12.675Z,99094.19
2022-10-18T19:49:43.733Z,99093.78
2022-10-18T19:52:13.885Z,99094.97
2022-10-18T19:54:45.045Z,99094.19
2022-10-18T19:57:15.105Z,99089.00
2022-10-18T19:59:45.119Z,99094.13
2022-10-18T20:02:18.515Z,99084.22
2022-10-18T20:04:48.573Z,99088.56
2022-10-18T20:07:18.548Z,99089.31
2022-10-18T20:09:48.547Z,99089.88
2022-10-18T20:12:18.567Z,99086.31
2022-10-18T20:14:48.528Z,99094.00
2022-10-18T20:17:21.314Z,99085.91
2022-10-18T20:19:51.612Z,99093.84
2022-10-18T20:22:21.619Z,99092.84
2022-10-18T20:24:51.599Z,99088.06
2022-10-18T20:27:21.718Z,99088.03
2022-10-18T20:29:51.993Z,99095.88
2022-10-18T20:32:24.883Z,99092.31
2022-10-18T20:34:54.839Z,99089.75
2022-10-18T20:37:24.956Z,99094.66
2022-10-18T20:39:54.975Z,99096.09
2022-10-18T20:42:24.973Z,99095.66
2022-10-18T20:44:55.023Z,99094.66
2022-10-18T20:47:27.893Z,99090.63
2022-10-18T20:49:58.017Z,99082.16
2022-10-18T20:52:28.150Z,99086.13
2022-10-18T20:54:58.081Z,99087.25
2022-10-18T20:57:29.804Z,99088.38
2022-10-18T21:00:00.699Z,99083.97
2022-10-18T21:02:33.284Z,99078.84
2022-10-18T21:05:03.229Z,99079.41
2022-10-18T21:07:33.567Z,99081.47
2022-10-18T21:10:03.824Z,99079.19
2022-10-18T21:12:34.986Z,99080.06
2022-10-18T21:15:05.270Z,99077.44
2022-10-18T21:17:37.863Z,99079.91
2022-10-18T21:20:10.859Z,99068.91
2022-10-18T21:22:40.849Z,99071.47
2022-10-18T21:25:12.247Z,99075.59
2022-10-18T21:27:42.322Z,99067.75
2022-10-18T21:30:14.217Z,99071.56
2022-10-18T21:32:46.849Z,99075.44
2022-10-18T21:35:16.921Z,99068.41
2022-10-18T21:37:46.913Z,99072.66
2022-10-18T21:40:17.151Z,99062.78
2022-10-18T21:42:47.211Z,99067.88
2022-10-18T21:45:17.358Z,99061.00
2022-10-18T21:47:50.264Z,99062.63
2022-10-18T21:50:20.286Z,99057.88
2022-10-18T21:52:51.006Z,99057.59
2022-10-18T21:55:21.004Z,99063.34
2022-10-18T21:57:51.002Z,99052.22
2022-10-18T22:00:21.156Z,99052.34
2022-10-18T22:03:09.740Z,99052.06
2022-10-18T22:05:40.044Z,99047.25
2022-10-18T22:08:10.585Z,99037.19
2022-10-18T22:10:40.612Z,99035.44
2022-10-18T22:13:10.597Z,99045.81
2022-10-18T22:15:40.611Z,99030.75
2022-10-18T22:18:13.227Z,99040.22
2022-10-18T22:20:43.534Z,99042.56
2022-10-18T22:23:13.755Z,99038.16
2022-10-18T22:25:43.944Z,99042.50
2022-10-18T22:28:14.170Z,99032.34
2022-10-18T22:30:44.197Z,99045.38
2022-10-18T22:33:16.796Z,99041.00
2022-10-18T22:35:51.799Z,99048.47
2022-10-18T22:38:21.891Z,99042.72
2022-10-18T22:40:54.773Z,99045.22
2022-10-18T22:43:24.781Z,99043.56
2022-10-18T22:45:54.821Z,99041.72
2022-10-18T22:48:27.390Z,99039.69
2022-10-18T22:50:57.452Z,99037.13
2022-10-18T22:53:27.979Z,99031.56
2022-10-18T22:55:58.295Z,99036.81
2022-10-18T22:58:28.557Z,99033.00
2022-10-18T23:01:04.674Z,99039.63
2022-10-18T23:03:38.303Z,99026.84
2022-10-18T23:06:21.388Z,99028.31
2022-10-18T23:08:52.405Z,99029.97
2022-10-18T23:11:23.344Z,99033.06
2022-10-18T23:13:54.069Z,99022.09
2022-10-18T23:16:24.652Z,99023.53
2022-10-18T23:19:00.111Z,99024.16
2022-10-18T23:21:31.271Z,99018.09
2022-10-18T23:24:01.394Z,99010.97
2022-10-18T23:26:31.583Z,99011.75
2022-10-18T23:29:01.707Z,98998.78
2022-10-18T23:31:35.440Z,99007.59
2022-10-18T23:34:09.000Z,99005.75
2022-10-18T23:36:39.670Z,99009.53
2022-10-18T23:39:09.787Z,99010.09
2022-10-18T23:41:39.852Z,99009.19
2022-10-18T23:44:11.453Z,99005.66
2022-10-18T23:46:41.478Z,99007.25
2022-10-18T23:49:14.244Z,99013.00
2022-10-18T23:51:44.275Z,99021.44
2022-10-18T23:54:14.358Z,99024.09
2022-10-18T23:56:44.372Z,99009.03
2022-10-18T23:59:14.359Z,99012.47
